Time;durP1;ratioP1;P1;durP2;ratioP2;P2;SDS_P1;SDS_P2;PMS_P1;PMS_P2;Temp;Humidity;BMP_temperature;BMP_pressure;BME280_temperature;BME280_humidity;BME280_pressure;Samples;Min_cycle;Max_cycle;Signal;HPM_P1;HPM_P2
2023/12/15 00:00:03;;;;;;;13.48;8.43;;;;;;;6.58;100.00;102486.97;4790137;29;20031;-75
2023/12/15 00:02:28;;;;;;;16.70;9.63;;;;;;;6.48;100.00;102495.53;4777387;29;20454;-75
2023/12/15 00:04:54;;;;;;;13.23;9.13;;;;;;;6.53;100.00;102495.41;4777908;29;20043;-75
2023/12/15 00:07:19;;;;;;;19.35;9.85;;;;;;;6.43;100.00;102490.06;4777230;29;20027;-75
2023/12/15 00:09:44;;;;;;;20.10;10.30;;;;;;;6.50;100.00;102498.84;4779927;29;20058;-75
2023/12/15 00:12:10;;;;;;;16.55;10.95;;;;;;;6.47;100.00;102499.44;4778935;29;20054;-75
2023/12/15 00:14:35;;;;;;;25.17;11.30;;;;;;;6.53;100.00;102511.28;4779205;29;20050;-75
2023/12/15 00:17:01;;;;;;;19.70;11.00;;;;;;;6.53;100.00;102508.50;4780452;29;20450;-75
2023/12/15 00:19:26;;;;;;;20.85;10.50;;;;;;;6.57;100.00;102513.13;4781247;29;20607;-75
2023/12/15 00:21:52;;;;;;;18.33;10.05;;;;;;;6.52;100.00;102510.47;4778370;29;20110;-75
2023/12/15 00:24:17;;;;;;;21.35;10.18;;;;;;;6.48;100.00;102523.34;4779136;29;20039;-75
2023/12/15 00:26:42;;;;;;;20.05;10.43;;;;;;;6.55;100.00;102520.97;4780735;29;20045;-75
2023/12/15 00:29:08;;;;;;;19.35;10.43;;;;;;;6.59;100.00;102524.78;4778203;29;20404;-75
2023/12/15 00:31:33;;;;;;;22.50;10.77;;;;;;;6.54;100.00;102526.88;4777702;29;20496;-75
2023/12/15 00:33:58;;;;;;;19.05;11.90;;;;;;;6.53;100.00;102525.19;4778993;29;20031;-75
2023/12/15 00:36:24;;;;;;;23.73;11.18;;;;;;;6.50;100.00;102519.13;4780022;29;20547;-75
2023/12/15 00:38:49;;;;;;;19.42;10.88;;;;;;;6.55;100.00;102517.38;4775483;29;20031;-75
2023/12/15 00:41:14;;;;;;;21.35;10.48;;;;;;;6.47;100.00;102507.78;4777248;30;20499;-75
2023/12/15 00:43:40;;;;;;;16.65;10.63;;;;;;;6.51;100.00;102518.00;4778484;29;20466;-75
2023/12/15 00:46:05;;;;;;;19.90;11.07;;;;;;;6.57;100.00;102513.13;4774808;29;20038;-75
2023/12/15 00:48:31;;;;;;;26.35;11.75;;;;;;;6.53;100.00;102523.22;4770631;29;20055;-75
2023/12/15 00:50:56;;;;;;;25.70;11.70;;;;;;;6.58;100.00;102531.50;4771919;29;20404;-75
2023/12/15 00:53:22;;;;;;;23.35;12.00;;;;;;;6.50;100.00;102526.66;4772148;29;20077;-75
2023/12/15 00:55:47;;;;;;;18.92;12.18;;;;;;;6.56;100.00;102511.50;4774313;29;20039;-75
2023/12/15 00:58:13;;;;;;;20.52;12.35;;;;;;;6.48;100.00;102509.44;4781631;29;20046;-76
2023/12/15 01:00:39;;;;;;;25.17;12.93;;;;;;;6.50;100.00;102510.78;4775812;29;20038;-75
2023/12/15 01:03:04;;;;;;;24.17;13.55;;;;;;;6.60;100.00;102503.34;4775533;30;20118;-75
2023/12/15 01:05:30;;;;;;;28.25;14.88;;;;;;;6.46;100.00;102520.06;4778371;29;20058;-76
2023/12/15 01:07:55;;;;;;;20.60;12.68;;;;;;;6.50;100.00;102541.38;4775219;29;20134;-76
2023/12/15 01:10:20;;;;;;;26.10;13.23;;;;;;;6.55;100.00;102545.19;4773496;29;20511;-76
2023/12/15 01:12:45;;;;;;;32.58;13.68;;;;;;;6.53;100.00;102548.28;4776119;29;20035;-76
2023/12/15 01:15:11;;;;;;;26.65;14.25;;;;;;;6.46;100.00;102550.66;4774989;29;20062;-76
2023/12/15 01:17:36;;;;;;;26.00;13.35;;;;;;;6.49;100.00;102564.78;4779336;29;20058;-76
2023/12/15 01:20:02;;;;;;;34.25;15.52;;;;;;;6.53;100.00;102561.38;4779102;29;20042;-76
2023/12/15 01:22:27;;;;;;;32.53;17.00;;;;;;;6.67;100.00;102571.34;4776449;29;20043;-75
2023/12/15 01:24:53;;;;;;;30.75;14.88;;;;;;;6.70;100.00;102567.13;4780182;29;20058;-75
2023/12/15 01:27:18;;;;;;;34.33;16.23;;;;;;;6.68;100.00;102564.69;4776798;30;20061;-76
2023/12/15 01:29:43;;;;;;;29.73;15.07;;;;;;;6.70;100.00;102567.97;4781704;30;21989;-76
2023/12/15 01:32:08;;;;;;;38.13;16.90;;;;;;;6.77;100.00;102570.34;4774653;29;20126;-76
2023/12/15 01:34:34;;;;;;;41.83;18.83;;;;;;;6.69;100.00;102577.44;4781959;29;20496;-76
2023/12/15 01:36:59;;;;;;;39.40;16.88;;;;;;;6.69;100.00;102588.56;4773209;30;20039;-75
2023/12/15 01:39:24;;;;;;;38.00;17.23;;;;;;;6.67;100.00;102585.28;4777795;29;20405;-76
2023/12/15 01:41:50;;;;;;;37.15;17.83;;;;;;;6.65;100.00;102587.53;4777939;29;20081;-75
2023/12/15 01:44:15;;;;;;;42.03;19.05;;;;;;;6.74;100.00;102579.28;4780333;29;20050;-75
2023/12/15 01:46:40;;;;;;;41.28;17.60;;;;;;;6.77;100.00;102575.06;4777601;29;20035;-75
2023/12/15 01:49:07;;;;;;;43.60;17.67;;;;;;;6.83;100.00;102579.38;4779181;29;20126;-75
2023/12/15 01:51:32;;;;;;;35.53;18.00;;;;;;;6.82;100.00;102580.53;4778474;29;20059;-75
2023/12/15 01:53:57;;;;;;;43.03;20.35;;;;;;;6.81;100.00;102574.16;4777341;29;20074;-75
2023/12/15 01:56:23;;;;;;;50.30;18.95;;;;;;;6.86;100.00;102596.28;4776900;29;20043;-75
2023/12/15 01:58:48;;;;;;;42.25;18.55;;;;;;;6.84;100.00;102600.53;4781690;29;20038;-75
2023/12/15 02:01:13;;;;;;;39.00;18.85;;;;;;;6.85;100.00;102607.72;4775781;29;20139;-75
2023/12/15 02:03:39;;;;;;;48.58;20.50;;;;;;;6.87;100.00;102616.59;4778057;29;20051;-75
2023/12/15 02:06:05;;;;;;;41.95;19.85;;;;;;;6.83;100.00;102610.00;4778090;29;20071;-75
2023/12/15 02:08:30;;;;;;;44.80;19.23;;;;;;;6.82;100.00;102606.41;4775869;30;20275;-75
2023/12/15 02:10:56;;;;;;;47.92;19.50;;;;;;;6.77;100.00;102617.66;4775213;29;20042;-76
2023/12/15 02:13:21;;;;;;;40.13;18.92;;;;;;;6.90;100.00;102621.56;4773382;29;20701;-76
2023/12/15 02:15:46;;;;;;;46.25;22.42;;;;;;;6.96;100.00;102625.88;4773507;29;20044;-76
2023/12/15 02:18:12;;;;;;;46.15;18.52;;;;;;;6.93;100.00;102623.72;4780024;30;20043;-75
2023/12/15 02:20:37;;;;;;;52.45;22.77;;;;;;;6.88;100.00;102640.53;4779971;29;20035;-75
2023/12/15 02:23:02;;;;;;;41.47;19.40;;;;;;;6.87;100.00;102645.28;4775597;29;20118;-75
2023/12/15 02:25:28;;;;;;;41.53;20.20;;;;;;;6.88;100.00;102646.91;4778414;29;20042;-75
2023/12/15 02:27:53;;;;;;;48.05;20.33;;;;;;;6.85;100.00;102646.69;4771420;29;20035;-75
2023/12/15 02:30:19;;;;;;;48.17;19.55;;;;;;;6.82;100.00;102652.91;4774018;29;20035;-75
2023/12/15 02:32:44;;;;;;;57.58;23.52;;;;;;;6.87;100.00;102661.13;4778369;29;20043;-75
2023/12/15 02:35:11;;;;;;;51.03;22.60;;;;;;;6.84;100.00;102662.59;4784396;29;20765;-75
2023/12/15 02:37:38;;;;;;;48.92;21.67;;;;;;;6.90;100.00;102666.91;4778233;29;20149;-75
2023/12/15 02:40:04;;;;;;;46.28;21.92;;;;;;;6.90;100.00;102668.88;4780698;30;20042;-75
2023/12/15 02:42:29;;;;;;;46.00;20.73;;;;;;;6.87;100.00;102663.91;4777119;29;20039;-75
2023/12/15 02:44:55;;;;;;;50.08;20.92;;;;;;;6.90;100.00;102654.97;4779180;29;20126;-75
2023/12/15 02:47:20;;;;;;;56.28;22.33;;;;;;;6.90;100.00;102654.97;4769654;29;20492;-75
2023/12/15 02:49:45;;;;;;;49.92;22.20;;;;;;;6.90;100.00;102660.53;4775808;29;20046;-75
2023/12/15 02:52:11;;;;;;;56.38;22.95;;;;;;;6.83;100.00;102662.88;4774345;29;20054;-75
2023/12/15 02:54:36;;;;;;;55.75;22.50;;;;;;;6.84;100.00;102661.75;4778998;29;20049;-75
2023/12/15 02:57:02;;;;;;;48.50;21.40;;;;;;;6.89;100.00;102658.88;4775971;30;20096;-75
2023/12/15 02:59:27;;;;;;;51.47;22.67;;;;;;;6.83;100.00;102654.53;4774153;29;20038;-75
2023/12/15 03:01:52;;;;;;;51.70;21.63;;;;;;;6.91;100.00;102662.16;4776942;29;20032;-75
2023/12/15 03:04:18;;;;;;;54.80;24.45;;;;;;;6.90;100.00;102658.56;4777516;29;20039;-75
2023/12/15 03:06:43;;;;;;;52.40;22.23;;;;;;;6.83;100.00;102658.16;4774535;29;20027;-75
2023/12/15 03:09:08;;;;;;;55.97;22.95;;;;;;;6.84;100.00;102656.19;4771629;29;20047;-75
2023/12/15 03:11:34;;;;;;;56.40;22.63;;;;;;;6.90;100.00;102661.34;4779826;30;20413;-75
2023/12/15 03:14:00;;;;;;;60.45;24.50;;;;;;;6.83;100.00;102666.50;4774024;29;20049;-75
2023/12/15 03:16:25;;;;;;;52.90;24.02;;;;;;;6.83;100.00;102676.78;4776848;29;20031;-75
2023/12/15 03:18:51;;;;;;;49.53;23.10;;;;;;;6.83;100.00;102674.88;4774153;29;20038;-75
2023/12/15 03:21:16;;;;;;;59.00;22.45;;;;;;;6.92;100.00;102688.88;4774200;30;20128;-75
2023/12/15 03:23:42;;;;;;;56.90;24.63;;;;;;;6.83;100.00;102693.50;4777537;29;20043;-75
2023/12/15 03:26:07;;;;;;;54.47;22.05;;;;;;;6.98;100.00;102704.34;4774486;30;20035;-75
2023/12/15 03:28:32;;;;;;;48.00;22.55;;;;;;;6.96;100.00;102695.50;4777277;29;20042;-75
2023/12/15 03:30:58;;;;;;;50.95;20.25;;;;;;;6.91;100.00;102699.19;4773876;29;20054;-75
2023/12/15 03:33:25;;;;;;;51.95;21.73;;;;;;;6.96;100.00;102698.28;4774064;29;20031;-75
2023/12/15 03:35:50;;;;;;;58.92;22.95;;;;;;;6.90;100.00;102697.53;4779713;29;20042;-75
2023/12/15 03:38:16;;;;;;;53.08;22.77;;;;;;;6.92;100.00;102708.38;4775804;29;20493;-75
2023/12/15 03:40:41;;;;;;;51.00;21.42;;;;;;;6.98;100.00;102707.13;4775466;29;20043;-75
2023/12/15 03:43:06;;;;;;;56.30;22.50;;;;;;;6.93;100.00;102710.00;4779977;29;20806;-75
2023/12/15 03:45:32;;;;;;;55.40;23.83;;;;;;;6.88;100.00;102699.81;4778294;29;20031;-75
2023/12/15 03:47:57;;;;;;;51.63;23.27;;;;;;;6.92;100.00;102698.06;4773140;29;20049;-75
2023/12/15 03:50:23;;;;;;;52.97;22.73;;;;;;;7.02;100.00;102697.03;4773497;29;20443;-75
2023/12/15 03:52:48;;;;;;;50.40;24.15;;;;;;;7.04;100.00;102705.91;4774873;29;20035;-75
2023/12/15 03:55:14;;;;;;;58.30;22.63;;;;;;;6.90;100.00;102710.63;4777375;29;20040;-75
2023/12/15 03:57:39;;;;;;;49.85;20.15;;;;;;;6.98;100.00;102701.56;4775059;29;20052;-75
2023/12/15 04:00:07;;;;;;;56.47;24.10;;;;;;;6.91;100.00;102717.84;4776577;29;20797;-75
2023/12/15 04:02:33;;;;;;;50.75;21.67;;;;;;;6.86;100.00;102707.63;4781207;29;20551;-75
2023/12/15 04:04:58;;;;;;;49.97;20.88;;;;;;;6.94;100.00;102716.44;4773925;29;20039;-75
2023/12/15 04:07:24;;;;;;;46.03;21.63;;;;;;;6.97;100.00;102718.56;4774746;29;20186;-75
2023/12/15 04:09:49;;;;;;;54.75;20.05;;;;;;;7.01;100.00;102716.81;4776208;29;20031;-75
2023/12/15 04:12:14;;;;;;;54.40;22.98;;;;;;;6.98;100.00;102726.63;4776786;29;20116;-75
2023/12/15 04:14:40;;;;;;;52.47;21.42;;;;;;;6.89;100.00;102742.38;4771599;29;20101;-75
2023/12/15 04:17:05;;;;;;;53.70;21.42;;;;;;;6.90;100.00;102736.50;4769987;29;20121;-75
2023/12/15 04:19:31;;;;;;;51.28;20.40;;;;;;;6.96;100.00;102739.19;4777400;29;20341;-75
2023/12/15 04:21:56;;;;;;;52.53;22.55;;;;;;;6.97;100.00;102744.44;4774482;29;20878;-75
2023/12/15 04:24:21;;;;;;;48.38;19.70;;;;;;;6.96;100.00;102737.25;4772010;29;20038;-75
2023/12/15 04:26:47;;;;;;;53.38;22.63;;;;;;;6.92;100.00;102741.78;4775214;29;20424;-76
2023/12/15 04:29:12;;;;;;;48.40;20.88;;;;;;;6.94;100.00;102744.25;4777209;29;20043;-76
2023/12/15 04:31:37;;;;;;;47.47;21.40;;;;;;;6.98;100.00;102751.69;4775730;29;20050;-75
2023/12/15 04:34:03;;;;;;;53.63;19.70;;;;;;;7.06;100.00;102750.13;4774762;29;20127;-76
2023/12/15 04:36:28;;;;;;;53.78;21.67;;;;;;;6.96;100.00;102753.09;4775719;29;20055;-75
2023/12/15 04:38:54;;;;;;;49.22;22.17;;;;;;;6.96;100.00;102761.47;4772848;29;20130;-75
2023/12/15 04:41:20;;;;;;;50.60;22.38;;;;;;;6.94;100.00;102749.84;4775285;29;20032;-75
2023/12/15 04:43:46;;;;;;;47.38;21.85;;;;;;;6.94;100.00;102755.41;4773698;29;20031;-74
2023/12/15 04:46:12;;;;;;;53.65;22.80;;;;;;;6.87;100.00;102753.00;4775905;29;20040;-76
2023/12/15 04:48:38;;;;;;;52.00;23.25;;;;;;;6.90;100.00;102761.56;4774753;29;20408;-76
2023/12/15 04:51:03;;;;;;;46.30;23.95;;;;;;;6.90;100.00;102752.41;4774179;29;20409;-76
2023/12/15 04:53:29;;;;;;;45.90;21.15;;;;;;;6.90;100.00;102755.19;4781145;29;20030;-76
2023/12/15 04:55:54;;;;;;;48.30;21.38;;;;;;;6.89;100.00;102764.66;4778848;29;20040;-76
2023/12/15 04:58:19;;;;;;;52.20;20.30;;;;;;;6.89;100.00;102770.22;4780384;29;20035;-77
2023/12/15 05:00:45;;;;;;;43.42;20.65;;;;;;;6.89;100.00;102770.22;4777604;29;20035;-75
2023/12/15 05:03:10;;;;;;;51.45;22.23;;;;;;;6.90;100.00;102777.44;4775653;29;20145;-76
2023/12/15 05:05:35;;;;;;;51.50;20.60;;;;;;;6.84;100.00;102787.84;4782190;29;20377;-76
2023/12/15 05:08:01;;;;;;;54.15;22.25;;;;;;;6.89;100.00;102798.91;4776427;29;20036;-76
2023/12/15 05:10:26;;;;;;;45.53;20.30;;;;;;;6.99;100.00;102802.63;4780555;29;20508;-75
2023/12/15 05:12:51;;;;;;;46.58;22.02;;;;;;;6.94;100.00;102797.97;4777958;29;20485;-75
2023/12/15 05:15:17;;;;;;;44.40;19.35;;;;;;;6.98;100.00;102806.53;4778279;29;20166;-75
2023/12/15 05:17:42;;;;;;;46.53;20.40;;;;;;;6.95;100.00;102810.75;4780130;29;20070;-76
2023/12/15 05:20:08;;;;;;;50.80;22.25;;;;;;;6.98;100.00;102801.81;4778087;29;20058;-75
2023/12/15 05:22:33;;;;;;;45.45;21.00;;;;;;;7.04;100.00;102810.88;4776842;29;20040;-76
2023/12/15 05:24:59;;;;;;;44.40;19.92;;;;;;;7.05;100.00;102812.53;4777892;29;20413;-76
2023/12/15 05:27:24;;;;;;;42.90;20.42;;;;;;;6.95;100.00;102810.75;4779558;29;20780;-76
2023/12/15 05:29:50;;;;;;;42.72;18.58;;;;;;;6.89;100.00;102815.59;4780994;29;20583;-75
2023/12/15 05:32:16;;;;;;;50.10;22.25;;;;;;;6.94;100.00;102806.34;4774720;29;20034;-75
2023/12/15 05:34:42;;;;;;;44.40;20.27;;;;;;;7.02;100.00;102813.97;4777359;29;20531;-75
2023/12/15 05:37:07;;;;;;;44.47;20.35;;;;;;;6.98;100.00;102812.94;4779411;29;20062;-72
2023/12/15 05:39:33;;;;;;;46.72;19.60;;;;;;;7.04;100.00;102816.44;4773858;29;20233;-72
2023/12/15 05:41:58;;;;;;;43.72;19.88;;;;;;;6.95;100.00;102812.72;4779423;29;20421;-73
2023/12/15 05:44:24;;;;;;;39.75;18.88;;;;;;;6.94;100.00;102816.66;4776340;29;20499;-74
2023/12/15 05:46:49;;;;;;;46.80;20.45;;;;;;;6.81;100.00;102824.66;4773024;29;20122;-73
2023/12/15 05:49:14;;;;;;;44.13;21.23;;;;;;;6.88;100.00;102832.59;4777217;29;20489;-72
2023/12/15 05:51:49;;;;;;;42.05;19.35;;;;;;;6.94;100.00;102827.78;4775731;29;20093;-72
2023/12/15 05:54:14;;;;;;;43.17;17.80;;;;;;;6.90;100.00;102847.88;4780232;29;20125;-73
2023/12/15 05:56:40;;;;;;;42.75;19.00;;;;;;;6.90;100.00;102860.97;4776194;29;20587;-74
2023/12/15 05:59:05;;;;;;;43.33;17.90;;;;;;;6.90;100.00;102858.19;4778915;29;20075;-73
2023/12/15 06:01:31;;;;;;;44.30;18.63;;;;;;;6.89;100.00;102859.28;4773476;29;20043;-74
2023/12/15 06:03:57;;;;;;;46.25;19.15;;;;;;;6.96;100.00;102865.31;4786071;29;20039;-73
2023/12/15 06:06:22;;;;;;;49.13;19.55;;;;;;;6.83;100.00;102855.78;4777520;29;20047;-74
2023/12/15 06:08:48;;;;;;;35.88;16.95;;;;;;;6.92;100.00;102844.78;4775562;30;20041;-73
2023/12/15 06:11:13;;;;;;;37.30;17.75;;;;;;;6.82;100.00;102850.53;4778823;29;20046;-75
2023/12/15 06:13:39;;;;;;;41.35;18.05;;;;;;;6.91;100.00;102840.34;4776680;29;20220;-72
2023/12/15 06:16:05;;;;;;;40.40;17.58;;;;;;;6.93;100.00;102854.78;4777178;29;20440;-74
2023/12/15 06:18:30;;;;;;;39.80;17.23;;;;;;;6.88;100.00;102854.88;4776783;29;20551;-72
2023/12/15 06:20:56;;;;;;;40.95;19.02;;;;;;;6.80;100.00;102861.94;4769929;29;20041;-72
2023/12/15 06:23:21;;;;;;;40.05;17.58;;;;;;;6.83;100.00;102861.38;4774925;29;20039;-72
2023/12/15 06:25:46;;;;;;;36.65;16.67;;;;;;;6.88;100.00;102871.56;4779423;29;20082;-75
2023/12/15 06:28:12;;;;;;;36.10;17.90;;;;;;;6.84;100.00;102860.22;4796133;29;20372;-74
2023/12/15 06:30:37;;;;;;;39.55;15.55;;;;;;;6.75;100.00;102861.22;4781337;29;20031;-73
2023/12/15 06:33:05;;;;;;;40.90;17.52;;;;;;;6.82;100.00;102858.88;4778555;29;20058;-72
2023/12/15 06:35:30;;;;;;;32.90;15.48;;;;;;;6.79;100.00;102863.09;4776642;29;20104;-75
2023/12/15 06:37:56;;;;;;;33.95;18.77;;;;;;;6.87;100.00;102861.56;4770876;29;21692;-72
2023/12/15 06:40:21;;;;;;;30.85;15.60;;;;;;;6.85;100.00;102869.38;4775530;29;20782;-72
2023/12/15 06:42:46;;;;;;;38.63;15.48;;;;;;;6.88;100.00;102874.38;4774889;29;20173;-72
2023/12/15 06:45:12;;;;;;;33.90;15.77;;;;;;;6.86;100.00;102877.44;4778857;29;20092;-72
2023/12/15 06:47:37;;;;;;;34.75;16.50;;;;;;;6.90;100.00;102867.34;4777641;29;20174;-75
2023/12/15 06:50:05;;;;;;;36.00;16.05;;;;;;;6.84;100.00;102873.31;4782174;29;20066;-75
2023/12/15 06:52:33;;;;;;;31.48;16.20;;;;;;;7.29;100.00;102879.22;4773716;29;20440;-74
2023/12/15 06:54:58;;;;;;;35.38;14.75;;;;;;;7.35;100.00;102885.53;4787163;29;20061;-74
2023/12/15 06:57:24;;;;;;;33.70;17.67;;;;;;;6.98;100.00;102896.47;4788092;29;20464;-74
2023/12/15 06:59:49;;;;;;;34.38;13.98;;;;;;;6.97;100.00;102905.94;4772137;29;20036;-74
2023/12/15 07:02:14;;;;;;;32.28;14.63;;;;;;;6.83;100.00;102897.53;4768881;29;20050;-74
2023/12/15 07:04:40;;;;;;;33.25;15.70;;;;;;;6.83;100.00;102910.63;4778526;29;20035;-75
2023/12/15 07:07:05;;;;;;;34.20;14.82;;;;;;;6.83;100.00;102905.06;4772986;30;20039;-74
2023/12/15 07:09:30;;;;;;;32.05;13.95;;;;;;;6.83;100.00;102896.69;4778574;29;20416;-75
2023/12/15 07:11:58;;;;;;;34.58;15.45;;;;;;;6.79;100.00;102909.56;4771865;29;20043;-75
2023/12/15 07:14:23;;;;;;;36.25;17.25;;;;;;;7.11;100.00;102912.38;4775703;29;20517;-74
2023/12/15 07:16:49;;;;;;;36.53;15.30;;;;;;;7.01;100.00;102914.53;4769813;29;20039;-75
2023/12/15 07:19:14;;;;;;;31.42;16.17;;;;;;;7.04;100.00;102917.53;4774607;29;20039;-75
2023/12/15 07:21:39;;;;;;;34.25;15.43;;;;;;;7.03;100.00;102910.28;4774181;29;20587;-75
2023/12/15 07:24:05;;;;;;;41.15;13.88;;;;;;;7.24;100.00;102905.19;4777421;29;20035;-75
2023/12/15 07:26:30;;;;;;;32.88;15.23;;;;;;;7.13;100.00;102909.31;4778308;29;20062;-74
2023/12/15 07:28:56;;;;;;;36.22;15.98;;;;;;;6.98;100.00;102920.69;4776588;29;20039;-74
2023/12/15 07:31:21;;;;;;;33.00;14.32;;;;;;;6.95;100.00;102935.22;4774469;29;20123;-74
2023/12/15 07:33:46;;;;;;;36.60;15.77;;;;;;;6.92;100.00;102931.09;4779334;29;20027;-75
2023/12/15 07:36:12;;;;;;;37.45;15.98;;;;;;;6.93;100.00;102938.28;4768154;29;20039;-74
2023/12/15 07:38:37;;;;;;;26.65;14.35;;;;;;;6.97;100.00;102949.66;4775281;29;20039;-75
2023/12/15 07:41:02;;;;;;;30.92;15.13;;;;;;;6.91;100.00;102943.34;4774578;29;20035;-75
2023/12/15 07:43:28;;;;;;;34.72;15.13;;;;;;;6.94;100.00;102962.25;4768526;29;20567;-76
2023/12/15 07:45:53;;;;;;;32.60;14.82;;;;;;;6.91;100.00;102958.13;4774425;29;20050;-75
2023/12/15 07:48:18;;;;;;;32.90;15.68;;;;;;;6.90;100.00;102958.41;4771739;29;20055;-75
2023/12/15 07:50:44;;;;;;;32.22;15.32;;;;;;;6.88;100.00;102972.63;4776508;29;20043;-75
2023/12/15 07:53:11;;;;;;;31.20;14.63;;;;;;;6.94;100.00;102975.34;4773595;29;20423;-76
2023/12/15 07:55:37;;;;;;;37.03;15.30;;;;;;;7.02;100.00;102978.25;4773186;29;20035;-75
2023/12/15 07:58:02;;;;;;;34.00;15.35;;;;;;;6.97;100.00;102983.06;4779024;29;20497;-75
2023/12/15 08:00:27;;;;;;;34.00;13.75;;;;;;;7.07;100.00;102983.75;4784962;29;20087;-75
2023/12/15 08:02:52;;;;;;;35.83;16.42;;;;;;;7.03;100.00;102985.47;4774304;29;20396;-75
2023/12/15 08:05:18;;;;;;;45.47;16.17;;;;;;;7.09;100.00;102991.81;4783271;29;20043;-75
2023/12/15 08:07:43;;;;;;;32.55;13.95;;;;;;;7.07;100.00;103000.44;4777010;30;20039;-75
2023/12/15 08:10:09;;;;;;;36.00;14.93;;;;;;;7.06;100.00;103011.88;4780520;29;20078;-75
2023/12/15 08:12:34;;;;;;;34.88;15.68;;;;;;;7.05;100.00;103015.81;4773152;29;20043;-75
2023/12/15 08:15:00;;;;;;;35.95;15.07;;;;;;;7.10;100.00;103011.00;4773984;29;20050;-74
2023/12/15 08:17:25;;;;;;;30.75;15.40;;;;;;;7.03;100.00;103016.09;4778034;30;20039;-74
2023/12/15 08:19:51;;;;;;;38.60;15.13;;;;;;;7.12;100.00;103019.84;4777067;29;20064;-74
2023/12/15 08:22:16;;;;;;;37.55;15.60;;;;;;;7.16;100.00;103020.09;4777447;29;20116;-74
2023/12/15 08:24:42;;;;;;;30.42;12.45;;;;;;;7.19;100.00;103030.63;4772063;29;20072;-74
2023/12/15 08:27:08;;;;;;;33.40;14.02;;;;;;;7.22;100.00;103045.91;4781340;29;20043;-74
2023/12/15 08:29:33;;;;;;;33.80;14.65;;;;;;;7.19;100.00;103046.50;4785476;29;20046;-74
2023/12/15 08:31:59;;;;;;;39.47;13.52;;;;;;;7.20;100.00;103048.16;4775871;30;20039;-75
2023/12/15 08:34:26;;;;;;;31.08;14.20;;;;;;;7.22;100.00;103052.31;4771439;29;20056;-75
2023/12/15 08:36:51;;;;;;;33.67;13.90;;;;;;;7.19;100.00;103052.06;4781502;29;20370;-74
2023/12/15 08:39:16;;;;;;;30.70;14.25;;;;;;;7.26;100.00;103058.09;4770144;29;20039;-73
2023/12/15 08:41:42;;;;;;;36.20;14.10;;;;;;;7.24;100.00;103049.22;4774922;29;20035;-74
2023/12/15 08:44:08;;;;;;;34.60;15.25;;;;;;;7.24;100.00;103065.94;4773783;30;20127;-75
2023/12/15 08:46:33;;;;;;;34.17;13.23;;;;;;;7.22;100.00;103062.63;4773007;29;20058;-75
2023/12/15 08:48:59;;;;;;;30.35;13.50;;;;;;;7.27;100.00;103062.53;4774734;29;20795;-75
2023/12/15 08:51:24;;;;;;;23.83;12.80;;;;;;;7.26;100.00;103066.47;4774174;29;20097;-75
2023/12/15 08:53:49;;;;;;;29.75;12.60;;;;;;;7.35;100.00;103073.00;4771323;30;20055;-75
2023/12/15 08:56:15;;;;;;;29.73;14.52;;;;;;;7.32;100.00;103070.84;4776957;30;20071;-75
2023/12/15 08:58:40;;;;;;;26.48;11.70;;;;;;;7.36;100.00;103068.25;4777852;29;20136;-75
2023/12/15 09:01:05;;;;;;;26.92;12.32;;;;;;;7.34;100.00;103082.50;4773827;29;20116;-75
2023/12/15 09:03:31;;;;;;;43.10;14.10;;;;;;;7.37;100.00;103087.47;4773570;29;20035;-75
2023/12/15 09:05:56;;;;;;;31.73;12.45;;;;;;;7.45;100.00;103084.00;4780991;29;20035;-74
2023/12/15 09:08:21;;;;;;;28.15;12.98;;;;;;;7.43;100.00;103091.81;4767687;29;20040;-72
2023/12/15 09:10:50;;;;;;;34.92;12.27;;;;;;;7.48;100.00;103100.13;4770515;29;20054;-73
2023/12/15 09:13:16;;;;;;;35.47;11.35;;;;;;;7.47;100.00;103097.63;4775084;29;20035;-74
2023/12/15 09:15:41;;;;;;;26.50;11.65;;;;;;;7.51;100.00;103105.06;4776337;30;20536;-73
2023/12/15 09:18:07;;;;;;;26.67;10.30;;;;;;;7.51;100.00;103116.22;4772085;29;20149;-76
2023/12/15 09:20:33;;;;;;;25.95;12.13;;;;;;;7.56;100.00;103128.44;4771520;29;20956;-75
2023/12/15 09:22:59;;;;;;;27.08;11.68;;;;;;;7.58;100.00;103138.13;4778967;29;20034;-75
2023/12/15 09:25:24;;;;;;;26.30;10.98;;;;;;;7.53;100.00;103141.84;4776417;30;20062;-75
2023/12/15 09:27:49;;;;;;;29.77;11.05;;;;;;;7.56;100.00;103159.09;4776094;29;20023;-75
2023/12/15 09:30:15;;;;;;;34.03;11.63;;;;;;;7.62;100.00;103160.66;4778606;29;20042;-75
2023/12/15 09:32:40;;;;;;;25.25;10.98;;;;;;;7.65;100.00;103160.03;4779606;29;20071;-75
2023/12/15 09:35:07;;;;;;;20.88;9.60;;;;;;;7.64;100.00;103164.81;4772072;29;20047;-76
2023/12/15 09:37:32;;;;;;;23.58;8.88;;;;;;;7.67;100.00;103168.94;4783064;29;20038;-76
2023/12/15 09:39:57;;;;;;;17.58;8.80;;;;;;;7.65;100.00;103165.63;4775502;29;20141;-76
2023/12/15 09:42:23;;;;;;;27.60;10.02;;;;;;;7.71;100.00;103164.41;4785991;29;20043;-76
2023/12/15 09:44:50;;;;;;;26.42;9.60;;;;;;;7.65;100.00;103165.63;4777198;29;20051;-76
2023/12/15 09:47:20;;;;;;;21.70;9.32;;;;;;;7.76;100.00;103169.94;4784128;29;20610;-76
2023/12/15 09:49:51;;;;;;;31.20;10.30;;;;;;;7.73;100.00;103162.97;4782325;29;20042;-76
2023/12/15 09:52:17;;;;;;;24.75;12.55;;;;;;;7.83;100.00;103169.53;4774522;29;20055;-75
2023/12/15 09:54:43;;;;;;;23.15;9.65;;;;;;;7.78;100.00;103164.88;4781120;29;20035;-75
2023/12/15 09:57:09;;;;;;;25.48;11.10;;;;;;;7.71;100.00;103175.56;4781649;30;20031;-75
2023/12/15 09:59:37;;;;;;;32.05;9.48;;;;;;;7.82;100.00;103179.88;4779565;29;20054;-75
2023/12/15 10:02:03;;;;;;;22.00;9.23;;;;;;;7.75;100.00;103190.56;4780658;29;20038;-75
2023/12/15 10:04:28;;;;;;;22.85;9.02;;;;;;;7.83;100.00;103195.47;4784095;29;20391;-75
2023/12/15 10:06:53;;;;;;;22.60;10.05;;;;;;;7.87;100.00;103193.72;4774452;29;20484;-75
2023/12/15 10:09:19;;;;;;;28.42;9.98;;;;;;;7.86;100.00;103194.00;4782649;29;20046;-75
2023/12/15 10:11:46;;;;;;;25.30;9.63;;;;;;;7.97;100.00;103206.69;4794330;29;20031;-75
2023/12/15 10:14:12;;;;;;;28.75;10.27;;;;;;;7.97;100.00;103201.13;4777709;29;20039;-75
2023/12/15 10:16:38;;;;;;;26.52;8.77;;;;;;;7.96;100.00;103215.34;4775644;29;20038;-72
2023/12/15 10:19:05;;;;;;;22.90;8.40;;;;;;;8.03;100.00;103230.59;4772061;29;20051;-74
2023/12/15 10:21:31;;;;;;;28.40;9.40;;;;;;;8.00;100.00;103225.59;4778939;29;20084;-73
2023/12/15 10:23:57;;;;;;;28.02;9.02;;;;;;;8.05;100.00;103239.47;4775901;29;20035;-72
2023/12/15 10:26:23;;;;;;;28.73;9.40;;;;;;;8.07;100.00;103244.72;4779146;29;20115;-72
2023/12/15 10:28:48;;;;;;;29.20;9.63;;;;;;;8.11;100.00;103251.34;4794343;29;20438;-73
2023/12/15 10:31:13;;;;;;;30.63;9.52;;;;;;;8.08;100.00;103236.06;4772090;29;20096;-74
2023/12/15 10:33:40;;;;;;;28.10;8.05;;;;;;;8.17;100.00;103227.84;4779686;29;20039;-71
2023/12/15 10:36:07;;;;;;;29.92;8.80;;;;;;;8.19;100.00;103224.75;4779137;29;20492;-74
2023/12/15 10:38:32;;;;;;;26.17;8.27;;;;;;;8.19;100.00;103225.56;4780842;29;20049;-73
2023/12/15 10:40:58;;;;;;;21.55;8.45;;;;;;;8.21;100.00;103230.84;4778410;29;20027;-73
2023/12/15 10:43:23;;;;;;;21.90;9.32;;;;;;;8.17;100.00;103238.16;4780421;29;20038;-72
2023/12/15 10:45:51;;;;;;;30.40;9.48;;;;;;;8.19;100.00;103247.06;4789141;29;20528;-73
2023/12/15 10:48:18;;;;;;;23.48;9.27;;;;;;;8.23;100.00;103248.94;4777351;29;20051;-72
2023/12/15 10:50:45;;;;;;;22.40;7.60;;;;;;;8.26;100.00;103247.50;4791670;29;20512;-73
2023/12/15 10:53:15;;;;;;;17.35;6.85;;;;;;;8.24;100.00;103239.44;4778728;29;20493;-74
2023/12/15 10:55:42;;;;;;;36.05;7.85;;;;;;;8.34;100.00;103247.63;4776967;29;20031;-73
2023/12/15 10:58:08;;;;;;;24.65;8.07;;;;;;;8.39;100.00;103235.56;4779065;29;20046;-72
2023/12/15 11:00:36;;;;;;;22.38;6.68;;;;;;;8.33;100.00;103237.63;4773852;29;20039;-73